APJ545 RJAA-RJKA
Flight info
| Callsign | APJ545 |
|---|---|
| Flight time | 2h 5m |
| Altitude | 34000 |
| Route | SAMUS Y84 HCE Y86 YULIA Y293 TONAR Y521 TUMGI |
| Aircraft | A320/M-SDE3FGHIRWY/LB1 |
Departure
| Time | 2026-04-20 18:43 |
|---|---|
| Airport | Narita International Airport (RJAA) |
Arrival
| Time | 2026-04-20 20:48 |
|---|---|
| Airport | Amami Airport (RJKA) |
| Time | Latitude | Longitude | Altitude | Speed | Heading |
|---|---|---|---|---|---|
| 2026-04-20 17:51 | 35.76705 | 140.39168 | 145 ft | 0 kts | 294° |
| 2026-04-20 18:03 | 35.76705 | 140.39169 | 145 ft | 0 kts | 294° |
| 2026-04-20 18:29 | 35.76704 | 140.39172 | 145 ft | 3 kts | 294° |
| 2026-04-20 18:29 | 35.76694 | 140.39203 | 145 ft | 4 kts | 286° |
| 2026-04-20 18:29 | 35.76688 | 140.39235 | 145 ft | 4 kts | 274° |
| 2026-04-20 18:29 | 35.76690 | 140.39267 | 145 ft | 4 kts | 242° |
| 2026-04-20 18:30 | 35.76704 | 140.39290 | 145 ft | 4 kts | 226° |
| 2026-04-20 18:30 | 35.76724 | 140.39313 | 145 ft | 4 kts | 218° |
| 2026-04-20 18:30 | 35.76746 | 140.39332 | 145 ft | 4 kts | 208° |
| 2026-04-20 18:30 | 35.76769 | 140.39345 | 145 ft | 2 kts | 204° |
| 2026-04-20 18:31 | 35.76770 | 140.39346 | 145 ft | 0 kts | 204° |
| 2026-04-20 18:34 | 35.76751 | 140.39335 | 145 ft | 6 kts | 204° |
| 2026-04-20 18:35 | 35.76692 | 140.39303 | 145 ft | 12 kts | 204° |
| 2026-04-20 18:35 | 35.76596 | 140.39250 | 145 ft | 18 kts | 204° |
| 2026-04-20 18:35 | 35.76465 | 140.39177 | 145 ft | 23 kts | 204° |
| 2026-04-20 18:35 | 35.76314 | 140.39094 | 145 ft | 25 kts | 204° |
| 2026-04-20 18:36 | 35.76166 | 140.39012 | 145 ft | 21 kts | 204° |
| 2026-04-20 18:36 | 35.76066 | 140.38961 | 145 ft | 11 kts | 187° |
| 2026-04-20 18:36 | 35.76014 | 140.39022 | 145 ft | 11 kts | 116° |
| 2026-04-20 18:36 | 35.75949 | 140.39086 | 145 ft | 14 kts | 149° |
| 2026-04-20 18:37 | 35.75859 | 140.39150 | 145 ft | 16 kts | 149° |
| 2026-04-20 18:37 | 35.75779 | 140.39205 | 145 ft | 10 kts | 161° |
| 2026-04-20 18:37 | 35.75720 | 140.39168 | 145 ft | 10 kts | 238° |
| 2026-04-20 18:37 | 35.75665 | 140.39099 | 145 ft | 13 kts | 206° |
| 2026-04-20 18:38 | 35.75575 | 140.39049 | 145 ft | 16 kts | 204° |
| 2026-04-20 18:38 | 35.75467 | 140.38990 | 145 ft | 18 kts | 204° |
| 2026-04-20 18:38 | 35.75344 | 140.38921 | 145 ft | 21 kts | 204° |
| 2026-04-20 18:38 | 35.75208 | 140.38846 | 145 ft | 22 kts | 204° |
| 2026-04-20 18:39 | 35.75107 | 140.38794 | 145 ft | 11 kts | 192° |
| 2026-04-20 18:39 | 35.75028 | 140.38826 | 146 ft | 14 kts | 149° |
| 2026-04-20 18:39 | 35.74938 | 140.38891 | 146 ft | 16 kts | 149° |
| 2026-04-20 18:39 | 35.74832 | 140.38967 | 146 ft | 19 kts | 149° |
| 2026-04-20 18:40 | 35.74711 | 140.39054 | 146 ft | 21 kts | 149° |
| 2026-04-20 18:40 | 35.74586 | 140.39145 | 145 ft | 17 kts | 149° |
| 2026-04-20 18:40 | 35.74496 | 140.39210 | 145 ft | 10 kts | 149° |
| 2026-04-20 18:40 | 35.74445 | 140.39228 | 145 ft | 9 kts | 187° |
| 2026-04-20 18:41 | 35.74395 | 140.39170 | 144 ft | 7 kts | 239° |
| 2026-04-20 18:41 | 35.74368 | 140.39114 | 150 ft | 8 kts | 239° |
| 2026-04-20 18:41 | 35.74359 | 140.39065 | 135 ft | 4 kts | 284° |
| 2026-04-20 18:41 | 35.74375 | 140.39042 | 143 ft | 4 kts | 323° |
| 2026-04-20 18:42 | 35.74429 | 140.39002 | 143 ft | 23 kts | 329° |
| 2026-04-20 18:42 | 35.74793 | 140.38740 | 146 ft | 95 kts | 329° |
| 2026-04-20 18:42 | 35.75539 | 140.38203 | 146 ft | 151 kts | 329° |
| 2026-04-20 18:42 | 35.76551 | 140.37466 | 374 ft | 172 kts | 328° |
| 2026-04-20 18:43 | 35.77571 | 140.36716 | 1020 ft | 171 kts | 326° |
| 2026-04-20 18:43 | 35.78594 | 140.35973 | 1624 ft | 172 kts | 322° |
| 2026-04-20 18:43 | 35.79648 | 140.35204 | 2015 ft | 186 kts | 321° |
| 2026-04-20 18:43 | 35.80824 | 140.34336 | 2288 ft | 208 kts | 322° |
| 2026-04-20 18:44 | 35.82136 | 140.33371 | 2519 ft | 232 kts | 323° |
| 2026-04-20 18:44 | 35.83600 | 140.32302 | 2857 ft | 257 kts | 323° |
| 2026-04-20 18:44 | 35.85202 | 140.31140 | 3396 ft | 274 kts | 324° |
| 2026-04-20 18:44 | 35.86859 | 140.29955 | 4250 ft | 278 kts | 324° |
| 2026-04-20 18:45 | 35.88547 | 140.28754 | 5112 ft | 282 kts | 326° |
| 2026-04-20 18:45 | 35.90425 | 140.27956 | 5936 ft | 294 kts | 349° |
| 2026-04-20 18:45 | 35.92490 | 140.28194 | 6720 ft | 306 kts | 17° |
| 2026-04-20 18:45 | 35.94312 | 140.29578 | 7488 ft | 313 kts | 46° |
| 2026-04-20 18:46 | 35.95451 | 140.31848 | 8249 ft | 315 kts | 75° |
| 2026-04-20 18:46 | 35.95640 | 140.34513 | 8967 ft | 312 kts | 104° |
| 2026-04-20 18:46 | 35.94857 | 140.36958 | 9675 ft | 306 kts | 131° |
| 2026-04-20 18:46 | 35.93345 | 140.38748 | 10243 ft | 305 kts | 150° |
| 2026-04-20 18:47 | 35.91555 | 140.40327 | 10434 ft | 328 kts | 150° |
| 2026-04-20 18:47 | 35.89627 | 140.41988 | 10708 ft | 346 kts | 150° |
| 2026-04-20 18:47 | 35.87638 | 140.43704 | 11303 ft | 353 kts | 150° |
| 2026-04-20 18:47 | 35.85614 | 140.45464 | 11985 ft | 357 kts | 149° |
| 2026-04-20 18:48 | 35.83582 | 140.47237 | 12668 ft | 360 kts | 149° |
| 2026-04-20 18:48 | 35.81528 | 140.49032 | 13376 ft | 363 kts | 149° |
| 2026-04-20 18:48 | 35.79461 | 140.50841 | 14003 ft | 366 kts | 149° |
| 2026-04-20 18:48 | 35.77396 | 140.52649 | 14560 ft | 371 kts | 149° |
| 2026-04-20 18:49 | 35.75253 | 140.54524 | 15124 ft | 376 kts | 149° |
| 2026-04-20 18:49 | 35.73138 | 140.56374 | 15660 ft | 380 kts | 150° |
| 2026-04-20 18:49 | 35.70966 | 140.58269 | 16192 ft | 385 kts | 150° |
| 2026-04-20 18:49 | 35.68763 | 140.60185 | 16703 ft | 390 kts | 150° |
| 2026-04-20 18:50 | 35.66534 | 140.62119 | 17224 ft | 395 kts | 150° |
| 2026-04-20 18:50 | 35.64269 | 140.64082 | 17737 ft | 400 kts | 150° |
| 2026-04-20 18:50 | 35.61978 | 140.66067 | 18238 ft | 405 kts | 150° |
| 2026-04-20 18:50 | 35.59665 | 140.68072 | 18691 ft | 410 kts | 150° |
| 2026-04-20 18:51 | 35.57321 | 140.70109 | 19133 ft | 414 kts | 150° |
| 2026-04-20 18:51 | 35.54958 | 140.72164 | 19588 ft | 419 kts | 150° |
| 2026-04-20 18:51 | 35.52565 | 140.74241 | 20043 ft | 423 kts | 150° |
| 2026-04-20 18:51 | 35.50151 | 140.76333 | 20487 ft | 428 kts | 150° |
| 2026-04-20 18:52 | 35.47707 | 140.78449 | 20932 ft | 432 kts | 150° |
| 2026-04-20 18:52 | 35.45234 | 140.80585 | 21386 ft | 437 kts | 150° |
| 2026-04-20 18:52 | 35.42738 | 140.82736 | 21799 ft | 441 kts | 150° |
| 2026-04-20 18:52 | 35.40213 | 140.84913 | 22219 ft | 446 kts | 150° |
| 2026-04-20 18:53 | 35.37569 | 140.86855 | 22628 ft | 440 kts | 163° |
| 2026-04-20 18:53 | 35.34674 | 140.87911 | 23027 ft | 430 kts | 179° |
| 2026-04-20 18:53 | 35.31733 | 140.87992 | 23430 ft | 418 kts | 195° |
| 2026-04-20 18:53 | 35.28956 | 140.87168 | 23765 ft | 406 kts | 209° |
| 2026-04-20 18:54 | 35.26348 | 140.85841 | 24121 ft | 407 kts | 211° |
| 2026-04-20 18:54 | 35.23737 | 140.84494 | 24487 ft | 409 kts | 211° |
| 2026-04-20 18:54 | 35.21142 | 140.83160 | 24838 ft | 411 kts | 211° |
| 2026-04-20 18:54 | 35.18501 | 140.81808 | 25194 ft | 413 kts | 211° |
| 2026-04-20 18:55 | 35.15845 | 140.80450 | 25518 ft | 415 kts | 211° |
| 2026-04-20 18:55 | 35.13334 | 140.79173 | 25839 ft | 416 kts | 210° |
| 2026-04-20 18:55 | 35.10650 | 140.77811 | 26174 ft | 418 kts | 210° |
| 2026-04-20 18:55 | 35.07959 | 140.76442 | 26501 ft | 420 kts | 210° |
| 2026-04-20 18:56 | 35.05258 | 140.75064 | 26826 ft | 422 kts | 210° |
| 2026-04-20 18:56 | 35.02543 | 140.73678 | 27157 ft | 424 kts | 210° |
| 2026-04-20 18:56 | 34.99810 | 140.72290 | 27464 ft | 426 kts | 210° |
| 2026-04-20 18:56 | 34.97071 | 140.70901 | 27767 ft | 428 kts | 210° |
| 2026-04-20 18:57 | 34.94321 | 140.69506 | 28074 ft | 429 kts | 210° |
| 2026-04-20 18:57 | 34.91557 | 140.68104 | 28373 ft | 431 kts | 210° |
| 2026-04-20 18:57 | 34.88782 | 140.66698 | 28672 ft | 432 kts | 210° |
| 2026-04-20 18:57 | 34.86000 | 140.65288 | 28961 ft | 434 kts | 210° |
| 2026-04-20 18:58 | 34.83212 | 140.63876 | 29231 ft | 436 kts | 210° |
| 2026-04-20 18:58 | 34.80407 | 140.62456 | 29491 ft | 437 kts | 210° |
| 2026-04-20 18:58 | 34.77591 | 140.61031 | 29755 ft | 439 kts | 210° |
| 2026-04-20 18:58 | 34.74768 | 140.59602 | 29993 ft | 440 kts | 210° |
| 2026-04-20 18:59 | 34.71937 | 140.58173 | 30209 ft | 442 kts | 210° |
| 2026-04-20 18:59 | 34.69088 | 140.56739 | 30396 ft | 443 kts | 210° |
| 2026-04-20 18:59 | 34.66274 | 140.55323 | 30576 ft | 445 kts | 210° |
| 2026-04-20 18:59 | 34.63414 | 140.53886 | 30828 ft | 444 kts | 210° |
| 2026-04-20 19:00 | 34.60557 | 140.52451 | 31097 ft | 444 kts | 210° |
| 2026-04-20 19:00 | 34.57707 | 140.51018 | 31346 ft | 444 kts | 211° |
| 2026-04-20 19:00 | 34.54859 | 140.49587 | 31594 ft | 443 kts | 211° |
| 2026-04-20 19:00 | 34.52010 | 140.48158 | 31847 ft | 443 kts | 211° |
| 2026-04-20 19:01 | 34.49159 | 140.46729 | 32101 ft | 443 kts | 211° |
| 2026-04-20 19:01 | 34.46306 | 140.45298 | 32343 ft | 443 kts | 211° |
| 2026-04-20 19:01 | 34.43464 | 140.43872 | 32586 ft | 443 kts | 211° |
| 2026-04-20 19:01 | 34.40608 | 140.42440 | 32836 ft | 443 kts | 212° |
| 2026-04-20 19:02 | 34.37765 | 140.41013 | 33091 ft | 443 kts | 212° |
| 2026-04-20 19:02 | 34.34920 | 140.39590 | 33337 ft | 443 kts | 212° |
| 2026-04-20 19:02 | 34.32071 | 140.38167 | 33576 ft | 443 kts | 212° |
| 2026-04-20 19:02 | 34.29224 | 140.36749 | 33814 ft | 443 kts | 212° |
| 2026-04-20 19:03 | 34.26375 | 140.35332 | 33926 ft | 442 kts | 212° |
| 2026-04-20 19:03 | 34.23540 | 140.33924 | 33955 ft | 440 kts | 212° |
| 2026-04-20 19:03 | 34.17892 | 140.31107 | 33950 ft | 439 kts | 212° |
| 2026-04-20 19:04 | 34.12285 | 140.28316 | 33958 ft | 439 kts | 212° |
| 2026-04-20 19:04 | 34.06634 | 140.25513 | 33954 ft | 439 kts | 212° |
| 2026-04-20 19:05 | 34.00975 | 140.22706 | 33955 ft | 440 kts | 212° |
| 2026-04-20 19:05 | 33.95314 | 140.19900 | 33951 ft | 440 kts | 212° |
| 2026-04-20 19:06 | 33.89651 | 140.17104 | 33944 ft | 440 kts | 211° |
| 2026-04-20 19:06 | 33.83978 | 140.14312 | 33937 ft | 441 kts | 211° |
| 2026-04-20 19:07 | 33.78313 | 140.11493 | 33938 ft | 438 kts | 215° |
| 2026-04-20 19:07 | 33.75797 | 140.09591 | 33935 ft | 419 kts | 230° |
| 2026-04-20 19:07 | 33.73869 | 140.07069 | 33934 ft | 403 kts | 244° |
| 2026-04-20 19:08 | 33.70301 | 139.98144 | 33931 ft | 395 kts | 252° |
| 2026-04-20 19:09 | 33.68068 | 139.92157 | 33934 ft | 396 kts | 252° |
| 2026-04-20 19:09 | 33.65804 | 139.86127 | 33936 ft | 396 kts | 252° |
| 2026-04-20 19:10 | 33.63520 | 139.80098 | 33931 ft | 397 kts | 252° |
| 2026-04-20 19:10 | 33.61239 | 139.74071 | 33937 ft | 397 kts | 252° |
| 2026-04-20 19:11 | 33.58956 | 139.68037 | 33936 ft | 397 kts | 252° |
| 2026-04-20 19:11 | 33.56665 | 139.62006 | 33943 ft | 398 kts | 252° |
| 2026-04-20 19:12 | 33.54753 | 139.56994 | 33939 ft | 398 kts | 252° |
| 2026-04-20 19:12 | 33.52454 | 139.50964 | 33939 ft | 398 kts | 252° |
| 2026-04-20 19:13 | 33.50144 | 139.44940 | 33948 ft | 398 kts | 252° |
| 2026-04-20 19:13 | 33.47836 | 139.38918 | 33949 ft | 398 kts | 252° |
| 2026-04-20 19:14 | 33.45534 | 139.32900 | 33947 ft | 397 kts | 252° |
| 2026-04-20 19:14 | 33.43226 | 139.26890 | 33954 ft | 397 kts | 251° |
| 2026-04-20 19:15 | 33.40912 | 139.20897 | 33950 ft | 396 kts | 251° |
| 2026-04-20 19:15 | 33.38597 | 139.14918 | 33947 ft | 396 kts | 251° |
| 2026-04-20 19:16 | 33.36276 | 139.08940 | 33946 ft | 396 kts | 251° |
| 2026-04-20 19:16 | 33.33960 | 139.02967 | 33944 ft | 396 kts | 251° |
| 2026-04-20 19:17 | 33.31645 | 138.97000 | 33949 ft | 396 kts | 251° |
| 2026-04-20 19:17 | 33.29325 | 138.91037 | 33955 ft | 396 kts | 251° |
| 2026-04-20 19:18 | 33.27000 | 138.85074 | 33952 ft | 396 kts | 251° |
| 2026-04-20 19:18 | 33.24673 | 138.79122 | 33954 ft | 395 kts | 251° |
| 2026-04-20 19:19 | 33.22421 | 138.73362 | 33956 ft | 395 kts | 251° |
| 2026-04-20 19:19 | 33.20098 | 138.67420 | 33959 ft | 395 kts | 251° |
| 2026-04-20 19:20 | 33.17770 | 138.61485 | 33953 ft | 395 kts | 251° |
| 2026-04-20 19:20 | 33.15440 | 138.55560 | 33951 ft | 394 kts | 251° |
| 2026-04-20 19:21 | 33.13103 | 138.49644 | 33949 ft | 394 kts | 251° |
| 2026-04-20 19:21 | 33.10768 | 138.43737 | 33954 ft | 393 kts | 251° |
| 2026-04-20 19:22 | 33.08441 | 138.37831 | 33953 ft | 393 kts | 250° |
| 2026-04-20 19:22 | 33.06114 | 138.31932 | 33952 ft | 393 kts | 250° |
| 2026-04-20 19:23 | 33.03781 | 138.26044 | 33959 ft | 393 kts | 250° |
| 2026-04-20 19:23 | 33.01443 | 138.20163 | 33955 ft | 392 kts | 250° |
| 2026-04-20 19:24 | 32.99104 | 138.14298 | 33955 ft | 392 kts | 250° |
| 2026-04-20 19:24 | 32.96768 | 138.08437 | 33953 ft | 391 kts | 250° |
| 2026-04-20 19:25 | 32.94458 | 138.02621 | 33950 ft | 391 kts | 250° |
| 2026-04-20 19:25 | 32.92119 | 137.96776 | 33952 ft | 391 kts | 250° |
| 2026-04-20 19:26 | 32.89783 | 137.90936 | 33950 ft | 390 kts | 250° |
| 2026-04-20 19:26 | 32.87447 | 137.85107 | 33954 ft | 390 kts | 250° |
| 2026-04-20 19:27 | 32.85114 | 137.79283 | 33953 ft | 390 kts | 250° |
| 2026-04-20 19:27 | 32.82783 | 137.73471 | 33948 ft | 389 kts | 250° |
| 2026-04-20 19:28 | 32.80447 | 137.67669 | 33950 ft | 389 kts | 250° |
| 2026-04-20 19:28 | 32.78106 | 137.61878 | 33949 ft | 388 kts | 250° |
| 2026-04-20 19:29 | 32.75764 | 137.56100 | 33945 ft | 388 kts | 250° |
| 2026-04-20 19:29 | 32.73430 | 137.50331 | 33948 ft | 387 kts | 250° |
| 2026-04-20 19:30 | 32.71098 | 137.44572 | 33940 ft | 387 kts | 250° |
| 2026-04-20 19:30 | 32.68768 | 137.38819 | 33941 ft | 386 kts | 250° |
| 2026-04-20 19:31 | 32.66438 | 137.33075 | 33934 ft | 386 kts | 250° |
| 2026-04-20 19:31 | 32.64097 | 137.27340 | 33937 ft | 386 kts | 249° |
| 2026-04-20 19:32 | 32.61774 | 137.21649 | 33935 ft | 386 kts | 250° |
| 2026-04-20 19:32 | 32.59431 | 137.15927 | 33931 ft | 386 kts | 249° |
| 2026-04-20 19:33 | 32.57085 | 137.10202 | 33937 ft | 386 kts | 249° |
| 2026-04-20 19:33 | 32.54742 | 137.04480 | 33945 ft | 386 kts | 249° |
| 2026-04-20 19:34 | 32.52389 | 136.98762 | 33938 ft | 386 kts | 249° |
| 2026-04-20 19:34 | 32.50040 | 136.93050 | 33942 ft | 386 kts | 249° |
| 2026-04-20 19:35 | 32.47689 | 136.87345 | 33940 ft | 385 kts | 249° |
| 2026-04-20 19:35 | 32.45342 | 136.81643 | 33937 ft | 385 kts | 249° |
| 2026-04-20 19:36 | 32.42989 | 136.75942 | 33933 ft | 385 kts | 249° |
| 2026-04-20 19:36 | 32.40628 | 136.70250 | 33938 ft | 385 kts | 249° |
| 2026-04-20 19:37 | 32.38267 | 136.64558 | 33942 ft | 385 kts | 249° |
| 2026-04-20 19:37 | 32.35918 | 136.58903 | 33944 ft | 385 kts | 249° |
| 2026-04-20 19:38 | 32.33559 | 136.53222 | 33950 ft | 385 kts | 249° |
| 2026-04-20 19:38 | 32.31197 | 136.47544 | 33950 ft | 385 kts | 249° |
| 2026-04-20 19:39 | 32.28829 | 136.41880 | 33949 ft | 384 kts | 249° |
| 2026-04-20 19:39 | 32.26461 | 136.36226 | 33948 ft | 384 kts | 249° |
| 2026-04-20 19:40 | 32.24095 | 136.30567 | 33945 ft | 383 kts | 248° |
| 2026-04-20 19:40 | 32.21728 | 136.24932 | 33942 ft | 383 kts | 248° |
| 2026-04-20 19:41 | 32.19362 | 136.19289 | 33937 ft | 383 kts | 248° |
| 2026-04-20 19:41 | 32.16929 | 136.13688 | 33942 ft | 385 kts | 245° |
| 2026-04-20 19:42 | 32.14162 | 136.08268 | 33940 ft | 386 kts | 243° |
| 2026-04-20 19:42 | 32.11290 | 136.02904 | 33941 ft | 386 kts | 243° |
| 2026-04-20 19:43 | 32.08455 | 135.97530 | 33941 ft | 385 kts | 243° |
| 2026-04-20 19:43 | 32.05758 | 135.92324 | 33941 ft | 385 kts | 244° |
| 2026-04-20 19:44 | 32.02986 | 135.86938 | 33947 ft | 384 kts | 243° |
| 2026-04-20 19:44 | 32.00208 | 135.81558 | 33945 ft | 384 kts | 243° |
| 2026-04-20 19:45 | 31.97421 | 135.76187 | 33945 ft | 384 kts | 243° |
| 2026-04-20 19:45 | 31.94632 | 135.70825 | 33951 ft | 384 kts | 243° |
| 2026-04-20 19:46 | 31.91840 | 135.65466 | 33953 ft | 384 kts | 243° |
| 2026-04-20 19:46 | 31.89050 | 135.60114 | 33949 ft | 383 kts | 243° |
| 2026-04-20 19:47 | 31.86263 | 135.54766 | 33949 ft | 383 kts | 243° |
| 2026-04-20 19:47 | 31.83477 | 135.49421 | 33946 ft | 383 kts | 243° |
| 2026-04-20 19:48 | 31.80685 | 135.44085 | 33938 ft | 383 kts | 243° |
| 2026-04-20 19:48 | 31.77883 | 135.38752 | 33933 ft | 383 kts | 243° |
| 2026-04-20 19:49 | 31.75104 | 135.33456 | 33936 ft | 383 kts | 243° |
| 2026-04-20 19:49 | 31.72303 | 135.28128 | 33934 ft | 384 kts | 243° |
| 2026-04-20 19:50 | 31.69489 | 135.22804 | 33928 ft | 384 kts | 243° |
| 2026-04-20 19:50 | 31.66678 | 135.17477 | 33927 ft | 384 kts | 243° |
| 2026-04-20 19:51 | 31.63869 | 135.12141 | 33929 ft | 384 kts | 243° |
| 2026-04-20 19:51 | 31.61055 | 135.06802 | 33930 ft | 385 kts | 243° |
| 2026-04-20 19:52 | 31.58232 | 135.01461 | 33927 ft | 385 kts | 243° |
| 2026-04-20 19:52 | 31.55407 | 134.96119 | 33923 ft | 386 kts | 243° |
| 2026-04-20 19:53 | 31.52580 | 134.90778 | 33925 ft | 386 kts | 243° |
| 2026-04-20 19:53 | 31.49738 | 134.85432 | 33923 ft | 387 kts | 243° |
| 2026-04-20 19:54 | 31.46893 | 134.80076 | 33921 ft | 387 kts | 243° |
| 2026-04-20 19:54 | 31.44041 | 134.74711 | 33921 ft | 388 kts | 243° |
| 2026-04-20 19:55 | 31.41184 | 134.69341 | 33927 ft | 389 kts | 243° |
| 2026-04-20 19:55 | 31.38313 | 134.63957 | 33934 ft | 390 kts | 243° |
| 2026-04-20 19:56 | 31.35922 | 134.59478 | 33928 ft | 391 kts | 243° |
| 2026-04-20 19:56 | 31.32569 | 134.53204 | 33933 ft | 391 kts | 242° |
| 2026-04-20 19:57 | 31.29676 | 134.47806 | 33933 ft | 392 kts | 243° |
| 2026-04-20 19:57 | 31.26783 | 134.42409 | 33926 ft | 392 kts | 242° |
| 2026-04-20 19:58 | 31.23883 | 134.37007 | 33928 ft | 392 kts | 242° |
| 2026-04-20 19:58 | 31.20971 | 134.31611 | 33925 ft | 393 kts | 242° |
| 2026-04-20 19:59 | 31.18060 | 134.26206 | 33922 ft | 393 kts | 242° |
| 2026-04-20 19:59 | 31.15146 | 134.20798 | 33928 ft | 394 kts | 242° |
| 2026-04-20 20:00 | 31.12221 | 134.15385 | 33925 ft | 394 kts | 242° |
| 2026-04-20 20:00 | 31.09294 | 134.09966 | 33933 ft | 395 kts | 242° |
| 2026-04-20 20:01 | 31.06355 | 134.04546 | 33930 ft | 395 kts | 242° |
| 2026-04-20 20:01 | 31.03413 | 133.99130 | 33931 ft | 395 kts | 242° |
| 2026-04-20 20:02 | 31.00479 | 133.93713 | 33944 ft | 395 kts | 242° |
| 2026-04-20 20:02 | 30.97533 | 133.88309 | 33946 ft | 395 kts | 242° |
| 2026-04-20 20:03 | 30.94587 | 133.82905 | 33945 ft | 395 kts | 242° |
| 2026-04-20 20:03 | 30.91637 | 133.77499 | 33946 ft | 395 kts | 242° |
| 2026-04-20 20:04 | 30.88693 | 133.72105 | 33941 ft | 395 kts | 242° |
| 2026-04-20 20:04 | 30.85761 | 133.66747 | 33939 ft | 395 kts | 242° |
| 2026-04-20 20:05 | 30.83292 | 133.62233 | 33940 ft | 395 kts | 242° |
| 2026-04-20 20:05 | 30.80342 | 133.56839 | 33940 ft | 395 kts | 242° |
| 2026-04-20 20:06 | 30.77379 | 133.51454 | 33948 ft | 395 kts | 242° |
| 2026-04-20 20:06 | 30.74435 | 133.46102 | 33952 ft | 395 kts | 242° |
| 2026-04-20 20:07 | 30.71471 | 133.40722 | 33957 ft | 395 kts | 242° |
| 2026-04-20 20:07 | 30.68505 | 133.35339 | 33959 ft | 395 kts | 242° |
| 2026-04-20 20:08 | 30.65541 | 133.29962 | 33963 ft | 395 kts | 242° |
| 2026-04-20 20:08 | 30.62572 | 133.24594 | 33967 ft | 395 kts | 242° |
| 2026-04-20 20:09 | 30.59603 | 133.19240 | 33966 ft | 394 kts | 242° |
| 2026-04-20 20:09 | 30.56634 | 133.13891 | 33965 ft | 394 kts | 242° |
| 2026-04-20 20:10 | 30.53674 | 133.08547 | 33965 ft | 394 kts | 242° |
| 2026-04-20 20:10 | 30.50728 | 133.03239 | 33961 ft | 394 kts | 242° |
| 2026-04-20 20:11 | 30.47755 | 132.97910 | 33962 ft | 394 kts | 242° |
| 2026-04-20 20:11 | 30.44782 | 132.92576 | 33958 ft | 394 kts | 242° |
| 2026-04-20 20:12 | 30.41800 | 132.87242 | 33956 ft | 394 kts | 242° |
| 2026-04-20 20:12 | 30.38824 | 132.81908 | 33959 ft | 395 kts | 242° |
| 2026-04-20 20:13 | 30.34349 | 132.73892 | 33959 ft | 395 kts | 242° |
| 2026-04-20 20:13 | 30.31351 | 132.68554 | 33963 ft | 396 kts | 241° |
| 2026-04-20 20:14 | 30.28343 | 132.63211 | 33973 ft | 396 kts | 241° |
| 2026-04-20 20:14 | 30.25333 | 132.57867 | 33972 ft | 397 kts | 241° |
| 2026-04-20 20:15 | 30.22323 | 132.52519 | 33970 ft | 397 kts | 241° |
| 2026-04-20 20:15 | 30.19338 | 132.47205 | 33967 ft | 397 kts | 241° |
| 2026-04-20 20:16 | 30.16326 | 132.41855 | 33968 ft | 397 kts | 241° |
| 2026-04-20 20:16 | 30.13313 | 132.36512 | 33968 ft | 397 kts | 241° |
| 2026-04-20 20:17 | 30.10290 | 132.31164 | 33971 ft | 398 kts | 241° |
| 2026-04-20 20:17 | 30.07262 | 132.25825 | 33970 ft | 398 kts | 241° |
| 2026-04-20 20:18 | 30.04223 | 132.20480 | 33971 ft | 398 kts | 241° |
| 2026-04-20 20:18 | 30.01189 | 132.15137 | 33976 ft | 398 kts | 241° |
| 2026-04-20 20:19 | 29.98150 | 132.09791 | 33968 ft | 398 kts | 241° |
| 2026-04-20 20:19 | 29.95112 | 132.04454 | 33970 ft | 399 kts | 241° |
| 2026-04-20 20:20 | 29.92063 | 131.99108 | 33974 ft | 399 kts | 241° |
| 2026-04-20 20:20 | 29.89014 | 131.93769 | 33983 ft | 399 kts | 241° |
| 2026-04-20 20:21 | 29.85959 | 131.88439 | 33981 ft | 399 kts | 241° |
| 2026-04-20 20:21 | 29.82918 | 131.83133 | 33970 ft | 399 kts | 241° |
| 2026-04-20 20:22 | 29.79883 | 131.77789 | 33979 ft | 398 kts | 242° |
| 2026-04-20 20:22 | 29.76934 | 131.72397 | 33975 ft | 398 kts | 242° |
| 2026-04-20 20:23 | 29.73988 | 131.66990 | 33980 ft | 398 kts | 242° |
| 2026-04-20 20:23 | 29.71019 | 131.61604 | 33980 ft | 399 kts | 242° |
| 2026-04-20 20:24 | 29.68036 | 131.56222 | 33973 ft | 399 kts | 242° |
| 2026-04-20 20:24 | 29.65057 | 131.50838 | 33977 ft | 399 kts | 242° |
| 2026-04-20 20:25 | 29.62074 | 131.45448 | 33981 ft | 399 kts | 242° |
| 2026-04-20 20:25 | 29.59084 | 131.40061 | 33979 ft | 400 kts | 242° |
| 2026-04-20 20:26 | 29.56091 | 131.34661 | 33622 ft | 402 kts | 242° |
| 2026-04-20 20:26 | 29.54595 | 131.31968 | 33360 ft | 402 kts | 242° |
| 2026-04-20 20:26 | 29.53081 | 131.29254 | 33102 ft | 403 kts | 242° |
| 2026-04-20 20:27 | 29.51565 | 131.26540 | 32842 ft | 403 kts | 242° |
| 2026-04-20 20:27 | 29.50055 | 131.23834 | 32554 ft | 400 kts | 242° |
| 2026-04-20 20:27 | 29.48562 | 131.21160 | 32048 ft | 395 kts | 242° |
| 2026-04-20 20:27 | 29.47087 | 131.18521 | 31527 ft | 391 kts | 242° |
| 2026-04-20 20:28 | 29.45643 | 131.15940 | 31034 ft | 387 kts | 242° |
| 2026-04-20 20:28 | 29.44179 | 131.13323 | 30528 ft | 384 kts | 242° |
| 2026-04-20 20:28 | 29.42761 | 131.10786 | 30028 ft | 381 kts | 242° |
| 2026-04-20 20:28 | 29.41321 | 131.08210 | 29480 ft | 377 kts | 242° |
| 2026-04-20 20:29 | 29.39931 | 131.05728 | 29009 ft | 372 kts | 242° |
| 2026-04-20 20:29 | 29.38540 | 131.03249 | 28541 ft | 367 kts | 241° |
| 2026-04-20 20:29 | 29.37164 | 131.00798 | 28072 ft | 363 kts | 241° |
| 2026-04-20 20:29 | 29.35806 | 130.98374 | 27611 ft | 359 kts | 241° |
| 2026-04-20 20:30 | 29.34464 | 130.95978 | 27160 ft | 356 kts | 241° |
| 2026-04-20 20:30 | 29.33132 | 130.93602 | 26723 ft | 353 kts | 241° |
| 2026-04-20 20:30 | 29.31812 | 130.91249 | 26279 ft | 350 kts | 241° |
| 2026-04-20 20:30 | 29.30504 | 130.88919 | 25865 ft | 346 kts | 241° |
| 2026-04-20 20:31 | 29.29207 | 130.86610 | 25455 ft | 343 kts | 240° |
| 2026-04-20 20:31 | 29.27921 | 130.84326 | 25053 ft | 340 kts | 240° |
| 2026-04-20 20:31 | 29.26645 | 130.82066 | 24654 ft | 336 kts | 240° |
| 2026-04-20 20:31 | 29.25382 | 130.79830 | 24260 ft | 333 kts | 240° |
| 2026-04-20 20:32 | 29.24128 | 130.77610 | 23864 ft | 330 kts | 240° |
| 2026-04-20 20:32 | 29.22890 | 130.75414 | 23455 ft | 327 kts | 240° |
| 2026-04-20 20:32 | 29.21665 | 130.73242 | 23032 ft | 323 kts | 240° |
| 2026-04-20 20:32 | 29.20454 | 130.71097 | 22643 ft | 319 kts | 240° |
| 2026-04-20 20:33 | 29.19252 | 130.68970 | 22258 ft | 317 kts | 240° |
| 2026-04-20 20:33 | 29.18058 | 130.66854 | 21863 ft | 315 kts | 240° |
| 2026-04-20 20:33 | 29.16871 | 130.64753 | 21483 ft | 314 kts | 240° |
| 2026-04-20 20:33 | 29.15689 | 130.62659 | 21086 ft | 313 kts | 240° |
| 2026-04-20 20:34 | 29.14513 | 130.60573 | 20700 ft | 311 kts | 240° |
| 2026-04-20 20:34 | 29.13341 | 130.58499 | 20307 ft | 310 kts | 240° |
| 2026-04-20 20:34 | 29.12166 | 130.56429 | 19911 ft | 309 kts | 239° |
| 2026-04-20 20:34 | 29.10996 | 130.54371 | 19518 ft | 308 kts | 239° |
| 2026-04-20 20:35 | 29.09829 | 130.52316 | 19127 ft | 307 kts | 239° |
| 2026-04-20 20:35 | 29.08682 | 130.50294 | 18738 ft | 307 kts | 239° |
| 2026-04-20 20:35 | 29.07522 | 130.48249 | 18347 ft | 307 kts | 239° |
| 2026-04-20 20:35 | 29.06361 | 130.46201 | 17877 ft | 307 kts | 239° |
| 2026-04-20 20:36 | 29.05201 | 130.44159 | 17450 ft | 306 kts | 239° |
| 2026-04-20 20:36 | 29.04042 | 130.42125 | 17041 ft | 305 kts | 239° |
| 2026-04-20 20:36 | 29.02887 | 130.40097 | 16631 ft | 304 kts | 239° |
| 2026-04-20 20:36 | 29.01731 | 130.38069 | 16224 ft | 304 kts | 239° |
| 2026-04-20 20:37 | 29.00578 | 130.36049 | 15816 ft | 303 kts | 239° |
| 2026-04-20 20:37 | 28.99429 | 130.34035 | 15417 ft | 303 kts | 240° |
| 2026-04-20 20:37 | 28.98281 | 130.32018 | 15014 ft | 303 kts | 240° |
| 2026-04-20 20:37 | 28.97130 | 130.29997 | 14613 ft | 303 kts | 240° |
| 2026-04-20 20:38 | 28.95983 | 130.27980 | 14205 ft | 303 kts | 240° |
| 2026-04-20 20:38 | 28.94831 | 130.25956 | 13796 ft | 304 kts | 240° |
| 2026-04-20 20:38 | 28.93675 | 130.23933 | 13348 ft | 304 kts | 240° |
| 2026-04-20 20:38 | 28.92520 | 130.21916 | 12953 ft | 303 kts | 239° |
| 2026-04-20 20:39 | 28.91371 | 130.19911 | 12542 ft | 302 kts | 239° |
| 2026-04-20 20:39 | 28.90225 | 130.17911 | 12122 ft | 301 kts | 239° |
| 2026-04-20 20:39 | 28.89081 | 130.15911 | 11715 ft | 300 kts | 239° |
| 2026-04-20 20:39 | 28.87947 | 130.13924 | 11307 ft | 299 kts | 239° |
| 2026-04-20 20:40 | 28.86810 | 130.11935 | 10889 ft | 299 kts | 239° |
| 2026-04-20 20:40 | 28.85673 | 130.09952 | 10472 ft | 299 kts | 239° |
| 2026-04-20 20:40 | 28.84542 | 130.07982 | 10244 ft | 292 kts | 239° |
| 2026-04-20 20:40 | 28.83443 | 130.06074 | 10010 ft | 285 kts | 239° |
| 2026-04-20 20:41 | 28.82362 | 130.04196 | 9913 ft | 281 kts | 239° |
| 2026-04-20 20:41 | 28.81285 | 130.02319 | 9565 ft | 285 kts | 239° |
| 2026-04-20 20:41 | 28.80199 | 130.00435 | 9079 ft | 286 kts | 239° |
| 2026-04-20 20:41 | 28.79108 | 129.98539 | 8630 ft | 287 kts | 239° |
| 2026-04-20 20:42 | 28.78022 | 129.96649 | 8180 ft | 287 kts | 239° |
| 2026-04-20 20:42 | 28.76925 | 129.94737 | 7699 ft | 288 kts | 239° |
| 2026-04-20 20:42 | 28.75827 | 129.92825 | 7243 ft | 286 kts | 240° |
| 2026-04-20 20:42 | 28.74737 | 129.90930 | 6657 ft | 286 kts | 240° |
| 2026-04-20 20:43 | 28.73574 | 129.89096 | 6144 ft | 286 kts | 229° |
| 2026-04-20 20:43 | 28.72029 | 129.87656 | 5632 ft | 290 kts | 212° |
| 2026-04-20 20:43 | 28.70222 | 129.86588 | 5136 ft | 294 kts | 208° |
| 2026-04-20 20:43 | 28.68441 | 129.85552 | 4821 ft | 289 kts | 208° |
| 2026-04-20 20:44 | 28.66669 | 129.84516 | 4294 ft | 285 kts | 208° |
| 2026-04-20 20:44 | 28.64918 | 129.83491 | 3846 ft | 279 kts | 209° |
| 2026-04-20 20:44 | 28.63236 | 129.82511 | 3774 ft | 265 kts | 209° |
| 2026-04-20 20:44 | 28.61631 | 129.81575 | 3665 ft | 253 kts | 209° |
| 2026-04-20 20:45 | 28.60107 | 129.80685 | 3555 ft | 241 kts | 209° |
| 2026-04-20 20:45 | 28.58644 | 129.79833 | 3441 ft | 232 kts | 210° |
| 2026-04-20 20:45 | 28.57181 | 129.79011 | 3070 ft | 237 kts | 209° |
| 2026-04-20 20:45 | 28.55689 | 129.78188 | 2712 ft | 238 kts | 208° |
| 2026-04-20 20:46 | 28.54224 | 129.77386 | 2379 ft | 227 kts | 208° |
| 2026-04-20 20:46 | 28.52839 | 129.76633 | 2063 ft | 216 kts | 208° |
| 2026-04-20 20:46 | 28.51506 | 129.75903 | 1804 ft | 207 kts | 208° |
| 2026-04-20 20:46 | 28.50239 | 129.75208 | 1485 ft | 199 kts | 209° |
| 2026-04-20 20:47 | 28.49016 | 129.74536 | 1200 ft | 191 kts | 209° |
| 2026-04-20 20:47 | 28.47854 | 129.73899 | 960 ft | 178 kts | 208° |
| 2026-04-20 20:47 | 28.46780 | 129.73310 | 718 ft | 165 kts | 208° |
| 2026-04-20 20:47 | 28.45779 | 129.72758 | 474 ft | 156 kts | 208° |
| 2026-04-20 20:48 | 28.44836 | 129.72234 | 236 ft | 147 kts | 207° |
| 2026-04-20 20:48 | 28.43932 | 129.71733 | 86 ft | 143 kts | 208° |
| 2026-04-20 20:48 | 28.43097 | 129.71274 | 26 ft | 114 kts | 206° |
| 2026-04-20 20:48 | 28.42704 | 129.71057 | 26 ft | 13 kts | 205° |
| 2026-04-20 20:49 | 28.42684 | 129.70976 | 27 ft | 12 kts | 295° |
| 2026-04-20 20:49 | 28.42717 | 129.70900 | 27 ft | 5 kts | 296° |
| 2026-04-20 20:49 | 28.42741 | 129.70879 | 27 ft | 4 kts | 349° |
| 2026-04-20 20:49 | 28.42776 | 129.70891 | 30 ft | 7 kts | 25° |
| 2026-04-20 20:50 | 28.42831 | 129.70921 | 27 ft | 9 kts | 26° |
| 2026-04-20 20:50 | 28.42887 | 129.70952 | 25 ft | 9 kts | 26° |
| 2026-04-20 20:50 | 28.42940 | 129.70982 | 24 ft | 8 kts | 26° |
| 2026-04-20 20:50 | 28.42990 | 129.71009 | 23 ft | 8 kts | 26° |
| 2026-04-20 20:51 | 28.43034 | 129.71033 | 23 ft | 4 kts | 25° |
| 2026-04-20 20:51 | 28.43058 | 129.71036 | 23 ft | 2 kts | 334° |
| 2026-04-20 20:51 | 28.43068 | 129.71014 | 25 ft | 6 kts | 296° |
| 2026-04-20 20:51 | 28.43083 | 129.70977 | 25 ft | 3 kts | 296° |
| 2026-04-20 20:52 | 28.43094 | 129.70953 | 26 ft | 5 kts | 296° |
| 2026-04-20 20:52 | 28.43102 | 129.70934 | 26 ft | 2 kts | 296° |
| 2026-04-20 20:52 | 28.43113 | 129.70908 | 27 ft | 1 kts | 296° |
| 2026-04-20 20:53 | 28.43114 | 129.70908 | 27 ft | 0 kts | 296° |
| 2026-04-20 20:53 | 28.43115 | 129.70904 | 27 ft | 1 kts | 296° |
| 2026-04-20 20:53 | 28.43115 | 129.70903 | 27 ft | 0 kts | 296° |
| 2026-04-20 20:56 | 28.43116 | 129.70901 | 27 ft | 0 kts | 296° |